sensor_id;sensor_type;location;lat;lon;timestamp;temperature;humidity
77104;DHT22;66052;43.498;3.710;2022-12-18T00:01:15;1.90;72.40
77104;DHT22;66052;43.498;3.710;2022-12-18T00:03:41;1.90;72.70
77104;DHT22;66052;43.498;3.710;2022-12-18T00:06:08;1.80;72.90
77104;DHT22;66052;43.498;3.710;2022-12-18T00:08:34;1.70;73.40
77104;DHT22;66052;43.498;3.710;2022-12-18T00:11:07;1.20;74.80
77104;DHT22;66052;43.498;3.710;2022-12-18T00:13:34;1.20;75.30
77104;DHT22;66052;43.498;3.710;2022-12-18T00:16:09;1.40;75.10
77104;DHT22;66052;43.498;3.710;2022-12-18T00:18:35;1.40;74.70
77104;DHT22;66052;43.498;3.710;2022-12-18T00:21:06;1.40;74.80
77104;DHT22;66052;43.498;3.710;2022-12-18T00:23:33;1.40;74.90
77104;DHT22;66052;43.498;3.710;2022-12-18T00:26:04;1.40;74.90
77104;DHT22;66052;43.498;3.710;2022-12-18T00:28:30;1.40;74.90
77104;DHT22;66052;43.498;3.710;2022-12-18T00:31:07;1.30;75.00
77104;DHT22;66052;43.498;3.710;2022-12-18T00:33:33;1.30;75.20
77104;DHT22;66052;43.498;3.710;2022-12-18T00:36:06;1.30;75.30
77104;DHT22;66052;43.498;3.710;2022-12-18T00:38:33;1.30;75.50
77104;DHT22;66052;43.498;3.710;2022-12-18T00:40:59;1.30;75.40
77104;DHT22;66052;43.498;3.710;2022-12-18T00:43:25;1.30;75.30
77104;DHT22;66052;43.498;3.710;2022-12-18T00:45:51;1.30;75.20
77104;DHT22;66052;43.498;3.710;2022-12-18T00:48:16;1.40;74.90
77104;DHT22;66052;43.498;3.710;2022-12-18T00:50:42;1.40;75.00
77104;DHT22;66052;43.498;3.710;2022-12-18T00:53:08;1.30;75.10
77104;DHT22;66052;43.498;3.710;2022-12-18T00:55:34;1.30;75.10
77104;DHT22;66052;43.498;3.710;2022-12-18T00:58:00;1.40;74.80
77104;DHT22;66052;43.498;3.710;2022-12-18T01:00:25;1.40;74.80
77104;DHT22;66052;43.498;3.710;2022-12-18T01:02:51;1.40;74.70
77104;DHT22;66052;43.498;3.710;2022-12-18T01:05:17;1.40;74.70
77104;DHT22;66052;43.498;3.710;2022-12-18T01:07:42;1.40;74.50
77104;DHT22;66052;43.498;3.710;2022-12-18T01:10:11;1.40;74.40
77104;DHT22;66052;43.498;3.710;2022-12-18T01:12:37;1.40;74.50
77104;DHT22;66052;43.498;3.710;2022-12-18T01:15:04;1.40;74.20
77104;DHT22;66052;43.498;3.710;2022-12-18T01:17:30;1.50;73.80
77104;DHT22;66052;43.498;3.710;2022-12-18T01:19:56;1.50;73.60
77104;DHT22;66052;43.498;3.710;2022-12-18T01:22:21;1.50;73.70
77104;DHT22;66052;43.498;3.710;2022-12-18T01:24:47;1.40;73.80
77104;DHT22;66052;43.498;3.710;2022-12-18T01:27:13;1.50;73.60
77104;DHT22;66052;43.498;3.710;2022-12-18T01:29:38;1.50;73.50
77104;DHT22;66052;43.498;3.710;2022-12-18T01:32:04;1.50;73.50
77104;DHT22;66052;43.498;3.710;2022-12-18T01:34:30;1.50;73.50
77104;DHT22;66052;43.498;3.710;2022-12-18T01:36:56;1.60;73.30
77104;DHT22;66052;43.498;3.710;2022-12-18T01:39:21;1.60;72.90
77104;DHT22;66052;43.498;3.710;2022-12-18T01:41:47;1.50;73.00
77104;DHT22;66052;43.498;3.710;2022-12-18T01:49:46;1.60;73.10
77104;DHT22;66052;43.498;3.710;2022-12-18T01:52:11;1.70;72.90
77104;DHT22;66052;43.498;3.710;2022-12-18T01:54:37;1.90;72.40
77104;DHT22;66052;43.498;3.710;2022-12-18T01:57:03;2.00;71.80
77104;DHT22;66052;43.498;3.710;2022-12-18T01:59:29;2.20;71.00
77104;DHT22;66052;43.498;3.710;2022-12-18T02:01:56;2.20;70.80
77104;DHT22;66052;43.498;3.710;2022-12-18T02:04:25;2.20;70.90
77104;DHT22;66052;43.498;3.710;2022-12-18T02:07:17;2.20;70.90
77104;DHT22;66052;43.498;3.710;2022-12-18T02:09:59;2.00;71.40
77104;DHT22;66052;43.498;3.710;2022-12-18T02:12:45;1.90;71.70
77104;DHT22;66052;43.498;3.710;2022-12-18T02:15:36;1.90;71.90
77104;DHT22;66052;43.498;3.710;2022-12-18T02:18:14;1.80;72.00
77104;DHT22;66052;43.498;3.710;2022-12-18T02:26:36;1.90;71.90
77104;DHT22;66052;43.498;3.710;2022-12-18T02:29:21;1.90;72.10
77104;DHT22;66052;43.498;3.710;2022-12-18T02:31:54;1.80;72.30
77104;DHT22;66052;43.498;3.710;2022-12-18T02:34:23;1.70;72.50
77104;DHT22;66052;43.498;3.710;2022-12-18T02:36:51;1.80;72.60
77104;DHT22;66052;43.498;3.710;2022-12-18T02:39:19;1.70;72.50
77104;DHT22;66052;43.498;3.710;2022-12-18T02:41:46;1.80;72.70
77104;DHT22;66052;43.498;3.710;2022-12-18T02:44:13;1.80;72.60
77104;DHT22;66052;43.498;3.710;2022-12-18T02:46:41;1.70;72.60
77104;DHT22;66052;43.498;3.710;2022-12-18T02:52:27;1.80;72.60
77104;DHT22;66052;43.498;3.710;2022-12-18T02:57:49;1.70;72.30
77104;DHT22;66052;43.498;3.710;2022-12-18T03:00:19;1.70;72.50
77104;DHT22;66052;43.498;3.710;2022-12-18T03:03:06;1.60;72.60
77104;DHT22;66052;43.498;3.710;2022-12-18T03:06:20;1.60;72.60
77104;DHT22;66052;43.498;3.710;2022-12-18T03:08:28;1.60;72.70
77104;DHT22;66052;43.498;3.710;2022-12-18T03:11:02;1.60;73.10
77104;DHT22;66052;43.498;3.710;2022-12-18T03:13:51;1.60;72.80
77104;DHT22;66052;43.498;3.710;2022-12-18T03:16:24;1.70;72.80
77104;DHT22;66052;43.498;3.710;2022-12-18T03:19:10;1.70;72.60
77104;DHT22;66052;43.498;3.710;2022-12-18T03:21:49;1.70;72.60
77104;DHT22;66052;43.498;3.710;2022-12-18T03:24:17;1.60;72.90
77104;DHT22;66052;43.498;3.710;2022-12-18T03:26:47;1.60;73.10
77104;DHT22;66052;43.498;3.710;2022-12-18T03:31:49;1.60;73.00
77104;DHT22;66052;43.498;3.710;2022-12-18T03:34:21;1.60;73.30
77104;DHT22;66052;43.498;3.710;2022-12-18T03:36:48;1.60;73.30
77104;DHT22;66052;43.498;3.710;2022-12-18T03:39:14;1.70;72.90
77104;DHT22;66052;43.498;3.710;2022-12-18T03:42:09;1.60;72.90
77104;DHT22;66052;43.498;3.710;2022-12-18T03:50:37;1.60;73.20
77104;DHT22;66052;43.498;3.710;2022-12-18T03:53:20;1.70;72.90
77104;DHT22;66052;43.498;3.710;2022-12-18T03:55:47;1.60;73.10
77104;DHT22;66052;43.498;3.710;2022-12-18T03:58:17;1.60;73.20
77104;DHT22;66052;43.498;3.710;2022-12-18T04:00:44;1.60;73.10
77104;DHT22;66052;43.498;3.710;2022-12-18T04:03:10;1.60;73.20
77104;DHT22;66052;43.498;3.710;2022-12-18T04:05:37;1.60;73.00
77104;DHT22;66052;43.498;3.710;2022-12-18T04:08:04;1.70;73.00
77104;DHT22;66052;43.498;3.710;2022-12-18T04:10:30;1.60;73.10
77104;DHT22;66052;43.498;3.710;2022-12-18T04:12:56;1.60;73.00
77104;DHT22;66052;43.498;3.710;2022-12-18T04:15:23;1.60;73.00
77104;DHT22;66052;43.498;3.710;2022-12-18T04:17:50;1.50;73.20
77104;DHT22;66052;43.498;3.710;2022-12-18T04:20:16;1.60;72.90
77104;DHT22;66052;43.498;3.710;2022-12-18T04:22:41;1.60;72.90
77104;DHT22;66052;43.498;3.710;2022-12-18T04:25:08;1.60;72.70
77104;DHT22;66052;43.498;3.710;2022-12-18T04:27:38;1.60;72.80
77104;DHT22;66052;43.498;3.710;2022-12-18T04:30:04;1.70;72.70
77104;DHT22;66052;43.498;3.710;2022-12-18T04:32:30;1.70;72.60
77104;DHT22;66052;43.498;3.710;2022-12-18T04:34:56;1.70;72.50
77104;DHT22;66052;43.498;3.710;2022-12-18T04:37:22;1.60;72.40
77104;DHT22;66052;43.498;3.710;2022-12-18T04:39:47;1.50;72.70
77104;DHT22;66052;43.498;3.710;2022-12-18T04:42:13;1.60;72.60
77104;DHT22;66052;43.498;3.710;2022-12-18T04:44:39;1.70;72.30
77104;DHT22;66052;43.498;3.710;2022-12-18T04:47:04;1.70;72.00
77104;DHT22;66052;43.498;3.710;2022-12-18T04:49:30;1.70;72.00
77104;DHT22;66052;43.498;3.710;2022-12-18T04:51:55;1.70;72.00
77104;DHT22;66052;43.498;3.710;2022-12-18T04:54:21;1.70;72.20
77104;DHT22;66052;43.498;3.710;2022-12-18T04:56:47;1.60;72.30
77104;DHT22;66052;43.498;3.710;2022-12-18T04:59:12;1.60;72.20
77104;DHT22;66052;43.498;3.710;2022-12-18T05:01:38;1.60;72.20
77104;DHT22;66052;43.498;3.710;2022-12-18T05:04:04;1.60;72.40
77104;DHT22;66052;43.498;3.710;2022-12-18T05:06:29;1.60;72.50
77104;DHT22;66052;43.498;3.710;2022-12-18T05:08:55;1.60;72.50
77104;DHT22;66052;43.498;3.710;2022-12-18T05:11:21;1.60;72.50
77104;DHT22;66052;43.498;3.710;2022-12-18T05:13:47;1.60;72.40
77104;DHT22;66052;43.498;3.710;2022-12-18T05:16:13;1.60;72.50
77104;DHT22;66052;43.498;3.710;2022-12-18T05:18:39;1.50;72.70
77104;DHT22;66052;43.498;3.710;2022-12-18T05:21:05;1.40;73.00
77104;DHT22;66052;43.498;3.710;2022-12-18T05:23:31;1.20;73.60
77104;DHT22;66052;43.498;3.710;2022-12-18T05:25:58;1.00;74.20
77104;DHT22;66052;43.498;3.710;2022-12-18T05:28:26;0.90;74.40
77104;DHT22;66052;43.498;3.710;2022-12-18T05:30:54;1.10;74.00
77104;DHT22;66052;43.498;3.710;2022-12-18T05:33:22;1.50;73.00
77104;DHT22;66052;43.498;3.710;2022-12-18T05:35:55;1.70;72.10
77104;DHT22;66052;43.498;3.710;2022-12-18T05:38:22;1.80;71.90
77104;DHT22;66052;43.498;3.710;2022-12-18T05:40:48;2.00;71.30
77104;DHT22;66052;43.498;3.710;2022-12-18T05:43:15;2.10;70.80
77104;DHT22;66052;43.498;3.710;2022-12-18T05:45:41;2.00;70.90
77104;DHT22;66052;43.498;3.710;2022-12-18T05:48:08;1.90;71.50
77104;DHT22;66052;43.498;3.710;2022-12-18T05:50:35;1.70;71.90
77104;DHT22;66052;43.498;3.710;2022-12-18T05:53:02;1.60;72.30
77104;DHT22;66052;43.498;3.710;2022-12-18T05:55:28;1.60;72.50
77104;DHT22;66052;43.498;3.710;2022-12-18T05:57:53;1.50;72.70
77104;DHT22;66052;43.498;3.710;2022-12-18T06:00:19;1.50;72.60
77104;DHT22;66052;43.498;3.710;2022-12-18T06:02:48;1.50;72.60
77104;DHT22;66052;43.498;3.710;2022-12-18T06:05:14;1.40;72.90
77104;DHT22;66052;43.498;3.710;2022-12-18T06:07:39;1.50;72.90
77104;DHT22;66052;43.498;3.710;2022-12-18T06:10:06;1.50;72.70
77104;DHT22;66052;43.498;3.710;2022-12-18T06:12:32;1.50;72.60
77104;DHT22;66052;43.498;3.710;2022-12-18T06:14:59;1.50;72.50
77104;DHT22;66052;43.498;3.710;2022-12-18T06:17:29;1.50;72.30
77104;DHT22;66052;43.498;3.710;2022-12-18T06:19:55;1.60;72.10
77104;DHT22;66052;43.498;3.710;2022-12-18T06:22:21;1.70;72.00
77104;DHT22;66052;43.498;3.710;2022-12-18T06:24:46;1.90;71.50
77104;DHT22;66052;43.498;3.710;2022-12-18T06:27:12;2.00;71.00
77104;DHT22;66052;43.498;3.710;2022-12-18T06:29:38;2.10;70.50
77104;DHT22;66052;43.498;3.710;2022-12-18T06:32:04;2.20;70.40
77104;DHT22;66052;43.498;3.710;2022-12-18T06:34:30;2.20;70.20
77104;DHT22;66052;43.498;3.710;2022-12-18T06:36:55;2.30;69.90
77104;DHT22;66052;43.498;3.710;2022-12-18T06:39:21;2.50;69.40
77104;DHT22;66052;43.498;3.710;2022-12-18T06:41:46;2.50;69.10
77104;DHT22;66052;43.498;3.710;2022-12-18T06:44:12;2.60;69.10
77104;DHT22;66052;43.498;3.710;2022-12-18T06:46:38;2.60;69.00
77104;DHT22;66052;43.498;3.710;2022-12-18T06:49:04;2.60;68.90
77104;DHT22;66052;43.498;3.710;2022-12-18T06:51:29;2.70;68.80
77104;DHT22;66052;43.498;3.710;2022-12-18T06:53:55;2.70;68.60
77104;DHT22;66052;43.498;3.710;2022-12-18T06:56:21;2.80;68.50
77104;DHT22;66052;43.498;3.710;2022-12-18T06:58:47;2.80;68.20
77104;DHT22;66052;43.498;3.710;2022-12-18T07:01:13;2.60;68.00
77104;DHT22;66052;43.498;3.710;2022-12-18T07:03:41;2.70;68.50
77104;DHT22;66052;43.498;3.710;2022-12-18T07:06:18;2.90;68.10
77104;DHT22;66052;43.498;3.710;2022-12-18T07:08:45;3.00;67.50
77104;DHT22;66052;43.498;3.710;2022-12-18T07:11:11;3.10;67.40
77104;DHT22;66052;43.498;3.710;2022-12-18T07:13:37;3.00;67.50
77104;DHT22;66052;43.498;3.710;2022-12-18T07:16:11;3.20;67.00
77104;DHT22;66052;43.498;3.710;2022-12-18T07:18:37;3.20;66.90
77104;DHT22;66052;43.498;3.710;2022-12-18T07:21:05;3.20;67.00
77104;DHT22;66052;43.498;3.710;2022-12-18T07:23:32;3.20;67.00
77104;DHT22;66052;43.498;3.710;2022-12-18T07:26:04;3.20;66.90
77104;DHT22;66052;43.498;3.710;2022-12-18T07:28:31;3.30;66.80
77104;DHT22;66052;43.498;3.710;2022-12-18T07:30:57;3.40;66.30
77104;DHT22;66052;43.498;3.710;2022-12-18T07:33:24;3.50;66.00
77104;DHT22;66052;43.498;3.710;2022-12-18T07:35:50;3.60;65.90
77104;DHT22;66052;43.498;3.710;2022-12-18T07:38:16;3.60;65.60
77104;DHT22;66052;43.498;3.710;2022-12-18T07:40:41;3.70;65.50
77104;DHT22;66052;43.498;3.710;2022-12-18T07:43:07;3.70;65.50
77104;DHT22;66052;43.498;3.710;2022-12-18T07:45:33;3.80;65.50
77104;DHT22;66052;43.498;3.710;2022-12-18T07:47:58;3.80;65.60
77104;DHT22;66052;43.498;3.710;2022-12-18T07:50:24;3.80;65.60
77104;DHT22;66052;43.498;3.710;2022-12-18T07:52:50;3.90;65.10
77104;DHT22;66052;43.498;3.710;2022-12-18T07:55:15;4.00;64.80
77104;DHT22;66052;43.498;3.710;2022-12-18T07:57:41;4.00;64.90
77104;DHT22;66052;43.498;3.710;2022-12-18T08:00:07;4.10;65.00
77104;DHT22;66052;43.498;3.710;2022-12-18T08:02:33;4.10;65.00
77104;DHT22;66052;43.498;3.710;2022-12-18T08:04:59;4.10;64.80
77104;DHT22;66052;43.498;3.710;2022-12-18T08:07:25;4.20;65.10
77104;DHT22;66052;43.498;3.710;2022-12-18T08:09:50;4.20;64.90
77104;DHT22;66052;43.498;3.710;2022-12-18T08:12:16;4.30;64.80
77104;DHT22;66052;43.498;3.710;2022-12-18T08:14:42;4.30;64.30
77104;DHT22;66052;43.498;3.710;2022-12-18T08:17:07;4.30;64.20
77104;DHT22;66052;43.498;3.710;2022-12-18T08:19:33;4.40;63.70
77104;DHT22;66052;43.498;3.710;2022-12-18T08:21:59;4.50;63.20
77104;DHT22;66052;43.498;3.710;2022-12-18T08:24:24;4.50;62.80
77104;DHT22;66052;43.498;3.710;2022-12-18T08:26:51;4.60;62.50
77104;DHT22;66052;43.498;3.710;2022-12-18T08:29:16;4.70;62.00
77104;DHT22;66052;43.498;3.710;2022-12-18T08:31:42;4.70;61.80
77104;DHT22;66052;43.498;3.710;2022-12-18T08:34:08;4.80;61.90
77104;DHT22;66052;43.498;3.710;2022-12-18T08:36:35;4.80;62.00
77104;DHT22;66052;43.498;3.710;2022-12-18T08:39:00;4.80;61.50
77104;DHT22;66052;43.498;3.710;2022-12-18T08:41:26;4.90;61.60
77104;DHT22;66052;43.498;3.710;2022-12-18T08:43:52;4.80;61.60
77104;DHT22;66052;43.498;3.710;2022-12-18T08:46:38;4.80;61.90
77104;DHT22;66052;43.498;3.710;2022-12-18T08:49:05;4.90;61.40
77104;DHT22;66052;43.498;3.710;2022-12-18T08:51:32;4.90;61.30
77104;DHT22;66052;43.498;3.710;2022-12-18T08:53:57;4.90;61.50
77104;DHT22;66052;43.498;3.710;2022-12-18T08:56:23;5.00;61.50
77104;DHT22;66052;43.498;3.710;2022-12-18T08:58:53;5.00;61.40
77104;DHT22;66052;43.498;3.710;2022-12-18T09:01:19;5.10;61.20
77104;DHT22;66052;43.498;3.710;2022-12-18T09:03:45;5.10;61.30
77104;DHT22;66052;43.498;3.710;2022-12-18T09:06:14;5.10;61.60
77104;DHT22;66052;43.498;3.710;2022-12-18T09:08:41;5.10;61.50
77104;DHT22;66052;43.498;3.710;2022-12-18T09:11:18;5.20;61.60
77104;DHT22;66052;43.498;3.710;2022-12-18T09:13:44;5.20;61.60
77104;DHT22;66052;43.498;3.710;2022-12-18T09:16:09;5.20;61.50
77104;DHT22;66052;43.498;3.710;2022-12-18T09:18:35;5.20;61.70
77104;DHT22;66052;43.498;3.710;2022-12-18T09:21:26;5.30;61.70
77104;DHT22;66052;43.498;3.710;2022-12-18T09:23:53;5.40;61.60
77104;DHT22;66052;43.498;3.710;2022-12-18T09:26:20;5.50;61.50
77104;DHT22;66052;43.498;3.710;2022-12-18T09:28:46;5.50;61.30
77104;DHT22;66052;43.498;3.710;2022-12-18T09:31:12;5.60;61.30
77104;DHT22;66052;43.498;3.710;2022-12-18T09:33:40;5.50;61.30
77104;DHT22;66052;43.498;3.710;2022-12-18T09:36:07;5.50;61.40
77104;DHT22;66052;43.498;3.710;2022-12-18T09:38:35;5.50;61.60
77104;DHT22;66052;43.498;3.710;2022-12-18T09:41:06;5.50;61.80
77104;DHT22;66052;43.498;3.710;2022-12-18T09:43:43;5.50;61.80
77104;DHT22;66052;43.498;3.710;2022-12-18T09:46:17;5.50;61.80
77104;DHT22;66052;43.498;3.710;2022-12-18T09:48:49;5.50;62.10
77104;DHT22;66052;43.498;3.710;2022-12-18T09:51:21;5.60;62.10
77104;DHT22;66052;43.498;3.710;2022-12-18T09:53:53;5.70;62.20
77104;DHT22;66052;43.498;3.710;2022-12-18T09:56:21;5.90;61.90
77104;DHT22;66052;43.498;3.710;2022-12-18T09:59:01;5.90;62.00
77104;DHT22;66052;43.498;3.710;2022-12-18T10:01:28;5.90;62.10
77104;DHT22;66052;43.498;3.710;2022-12-18T10:03:55;5.80;62.40
77104;DHT22;66052;43.498;3.710;2022-12-18T10:06:29;5.80;62.80
77104;DHT22;66052;43.498;3.710;2022-12-18T10:09:10;5.80;63.10
77104;DHT22;66052;43.498;3.710;2022-12-18T10:28:12;6.50;62.40
77104;DHT22;66052;43.498;3.710;2022-12-18T10:30:39;6.40;62.50
77104;DHT22;66052;43.498;3.710;2022-12-18T10:33:05;6.40;62.60
77104;DHT22;66052;43.498;3.710;2022-12-18T10:35:31;6.30;62.70
77104;DHT22;66052;43.498;3.710;2022-12-18T10:43:37;6.50;63.10
77104;DHT22;66052;43.498;3.710;2022-12-18T10:51:07;6.90;62.40
77104;DHT22;66052;43.498;3.710;2022-12-18T10:53:35;6.90;62.30
77104;DHT22;66052;43.498;3.710;2022-12-18T10:56:03;6.90;62.40
77104;DHT22;66052;43.498;3.710;2022-12-18T10:58:35;6.90;62.30
77104;DHT22;66052;43.498;3.710;2022-12-18T11:01:17;6.90;62.50
77104;DHT22;66052;43.498;3.710;2022-12-18T11:03:46;6.90;62.60
77104;DHT22;66052;43.498;3.710;2022-12-18T11:06:25;6.70;63.60
77104;DHT22;66052;43.498;3.710;2022-12-18T11:09:02;6.80;63.80
77104;DHT22;66052;43.498;3.710;2022-12-18T11:11:29;6.70;64.20
77104;DHT22;66052;43.498;3.710;2022-12-18T11:14:45;6.60;64.50
77104;DHT22;66052;43.498;3.710;2022-12-18T11:16:51;6.70;64.80
77104;DHT22;66052;43.498;3.710;2022-12-18T11:21:52;6.80;64.80
77104;DHT22;66052;43.498;3.710;2022-12-18T11:24:30;6.90;65.00
77104;DHT22;66052;43.498;3.710;2022-12-18T11:27:04;6.90;65.20
77104;DHT22;66052;43.498;3.710;2022-12-18T11:29:36;7.00;65.30
77104;DHT22;66052;43.498;3.710;2022-12-18T11:34:44;7.20;65.20
77104;DHT22;66052;43.498;3.710;2022-12-18T11:37:12;7.20;65.10
77104;DHT22;66052;43.498;3.710;2022-12-18T11:40:06;7.30;65.00
77104;DHT22;66052;43.498;3.710;2022-12-18T11:42:41;7.30;65.20
77104;DHT22;66052;43.498;3.710;2022-12-18T11:50:24;7.40;65.40
77104;DHT22;66052;43.498;3.710;2022-12-18T11:52:50;7.50;65.30
77104;DHT22;66052;43.498;3.710;2022-12-18T11:58:12;7.50;65.70
77104;DHT22;66052;43.498;3.710;2022-12-18T12:11:57;7.60;67.10
77104;DHT22;66052;43.498;3.710;2022-12-18T12:17:22;7.60;67.80
77104;DHT22;66052;43.498;3.710;2022-12-18T12:20:16;7.70;67.60
77104;DHT22;66052;43.498;3.710;2022-12-18T12:22:53;7.70;67.60
77104;DHT22;66052;43.498;3.710;2022-12-18T12:31:10;7.90;67.80
77104;DHT22;66052;43.498;3.710;2022-12-18T12:34:07;7.90;68.00
77104;DHT22;66052;43.498;3.710;2022-12-18T12:39:14;7.80;68.60
77104;DHT22;66052;43.498;3.710;2022-12-18T12:41:42;7.80;69.10
77104;DHT22;66052;43.498;3.710;2022-12-18T12:44:45;7.80;69.10
77104;DHT22;66052;43.498;3.710;2022-12-18T12:47:26;7.80;69.50
77104;DHT22;66052;43.498;3.710;2022-12-18T12:49:54;7.80;69.70
77104;DHT22;66052;43.498;3.710;2022-12-18T12:52:35;7.70;70.00
77104;DHT22;66052;43.498;3.710;2022-12-18T12:55:05;7.70;70.10
77104;DHT22;66052;43.498;3.710;2022-12-18T12:57:39;7.70;70.20
77104;DHT22;66052;43.498;3.710;2022-12-18T13:00:15;7.80;70.40
77104;DHT22;66052;43.498;3.710;2022-12-18T13:08:09;7.80;70.90
77104;DHT22;66052;43.498;3.710;2022-12-18T13:13:21;7.80;71.20
77104;DHT22;66052;43.498;3.710;2022-12-18T13:16:06;7.80;71.40
77104;DHT22;66052;43.498;3.710;2022-12-18T13:18:33;7.80;71.70
77104;DHT22;66052;43.498;3.710;2022-12-18T13:31:10;8.10;72.30
77104;DHT22;66052;43.498;3.710;2022-12-18T13:33:39;8.10;72.30
77104;DHT22;66052;43.498;3.710;2022-12-18T13:38:39;8.10;72.40
77104;DHT22;66052;43.498;3.710;2022-12-18T13:46:28;8.30;72.30
77104;DHT22;66052;43.498;3.710;2022-12-18T13:49:21;8.40;72.00
77104;DHT22;66052;43.498;3.710;2022-12-18T13:51:50;8.60;71.50
77104;DHT22;66052;43.498;3.710;2022-12-18T13:57:36;8.60;71.50
77104;DHT22;66052;43.498;3.710;2022-12-18T14:00:25;8.60;71.40
77104;DHT22;66052;43.498;3.710;2022-12-18T14:02:52;8.70;71.50
77104;DHT22;66052;43.498;3.710;2022-12-18T14:05:31;8.70;71.40
77104;DHT22;66052;43.498;3.710;2022-12-18T14:08:05;8.80;71.20
77104;DHT22;66052;43.498;3.710;2022-12-18T14:10:32;8.90;71.10
77104;DHT22;66052;43.498;3.710;2022-12-18T14:13:03;8.80;71.40
77104;DHT22;66052;43.498;3.710;2022-12-18T14:20:56;8.60;72.70
77104;DHT22;66052;43.498;3.710;2022-12-18T14:25:56;8.60;73.10
77104;DHT22;66052;43.498;3.710;2022-12-18T14:28:23;8.70;73.10
77104;DHT22;66052;43.498;3.710;2022-12-18T14:30:48;8.60;73.30
77104;DHT22;66052;43.498;3.710;2022-12-18T14:33:24;8.70;73.40
77104;DHT22;66052;43.498;3.710;2022-12-18T14:35:59;8.60;73.50
77104;DHT22;66052;43.498;3.710;2022-12-18T14:38:37;8.60;73.80
77104;DHT22;66052;43.498;3.710;2022-12-18T14:41:15;8.50;74.00
77104;DHT22;66052;43.498;3.710;2022-12-18T14:43:43;8.60;74.00
77104;DHT22;66052;43.498;3.710;2022-12-18T14:51:50;8.60;74.40
77104;DHT22;66052;43.498;3.710;2022-12-18T14:54:19;8.50;74.80
77104;DHT22;66052;43.498;3.710;2022-12-18T14:56:56;8.50;74.90
77104;DHT22;66052;43.498;3.710;2022-12-18T14:59:26;8.50;75.20
77104;DHT22;66052;43.498;3.710;2022-12-18T15:02:30;8.50;75.30
77104;DHT22;66052;43.498;3.710;2022-12-18T15:05:05;8.50;75.80
77104;DHT22;66052;43.498;3.710;2022-12-18T15:07:45;8.50;75.80
77104;DHT22;66052;43.498;3.710;2022-12-18T15:10:19;8.50;75.80
77104;DHT22;66052;43.498;3.710;2022-12-18T15:12:50;8.60;75.70
77104;DHT22;66052;43.498;3.710;2022-12-18T15:20:31;8.60;75.90
77104;DHT22;66052;43.498;3.710;2022-12-18T15:22:58;8.60;76.00
77104;DHT22;66052;43.498;3.710;2022-12-18T15:25:36;8.60;76.10
77104;DHT22;66052;43.498;3.710;2022-12-18T15:28:03;8.60;76.20
77104;DHT22;66052;43.498;3.710;2022-12-18T15:30:29;8.60;76.20
77104;DHT22;66052;43.498;3.710;2022-12-18T15:33:33;8.60;76.30
77104;DHT22;66052;43.498;3.710;2022-12-18T15:36:02;8.60;76.30
77104;DHT22;66052;43.498;3.710;2022-12-18T15:38:28;8.50;76.40
77104;DHT22;66052;43.498;3.710;2022-12-18T15:40:54;8.50;76.60
77104;DHT22;66052;43.498;3.710;2022-12-18T15:43:23;8.50;76.70
77104;DHT22;66052;43.498;3.710;2022-12-18T15:46:06;8.50;76.70
77104;DHT22;66052;43.498;3.710;2022-12-18T15:48:34;8.40;77.00
77104;DHT22;66052;43.498;3.710;2022-12-18T15:51:01;8.50;77.00
77104;DHT22;66052;43.498;3.710;2022-12-18T15:53:32;8.40;77.10
77104;DHT22;66052;43.498;3.710;2022-12-18T15:55:58;8.40;77.20
77104;DHT22;66052;43.498;3.710;2022-12-18T15:58:43;8.40;77.30
77104;DHT22;66052;43.498;3.710;2022-12-18T16:01:09;8.40;77.40
77104;DHT22;66052;43.498;3.710;2022-12-18T16:03:36;8.40;77.40
77104;DHT22;66052;43.498;3.710;2022-12-18T16:06:02;8.40;77.40
77104;DHT22;66052;43.498;3.710;2022-12-18T16:08:31;8.40;77.60
77104;DHT22;66052;43.498;3.710;2022-12-18T16:10:57;8.40;77.50
77104;DHT22;66052;43.498;3.710;2022-12-18T16:13:23;8.40;77.70
77104;DHT22;66052;43.498;3.710;2022-12-18T16:15:49;8.40;77.80
77104;DHT22;66052;43.498;3.710;2022-12-18T16:18:15;8.40;77.80
77104;DHT22;66052;43.498;3.710;2022-12-18T16:20:41;8.40;78.00
77104;DHT22;66052;43.498;3.710;2022-12-18T16:23:06;8.40;78.20
77104;DHT22;66052;43.498;3.710;2022-12-18T16:25:33;8.40;78.30
77104;DHT22;66052;43.498;3.710;2022-12-18T16:27:58;8.40;78.60
77104;DHT22;66052;43.498;3.710;2022-12-18T16:30:26;8.50;78.70
77104;DHT22;66052;43.498;3.710;2022-12-18T16:32:54;8.50;78.70
77104;DHT22;66052;43.498;3.710;2022-12-18T16:35:20;8.50;79.00
77104;DHT22;66052;43.498;3.710;2022-12-18T16:37:46;8.60;78.80
77104;DHT22;66052;43.498;3.710;2022-12-18T16:40:15;8.60;79.10
77104;DHT22;66052;43.498;3.710;2022-12-18T16:42:42;8.60;79.20
77104;DHT22;66052;43.498;3.710;2022-12-18T16:45:10;8.70;79.50
77104;DHT22;66052;43.498;3.710;2022-12-18T16:47:36;8.80;79.50
77104;DHT22;66052;43.498;3.710;2022-12-18T16:50:03;8.80;79.60
77104;DHT22;66052;43.498;3.710;2022-12-18T16:52:29;8.80;79.60
77104;DHT22;66052;43.498;3.710;2022-12-18T16:54:55;8.70;79.60
77104;DHT22;66052;43.498;3.710;2022-12-18T16:57:21;8.70;79.50
77104;DHT22;66052;43.498;3.710;2022-12-18T16:59:47;8.70;79.30
77104;DHT22;66052;43.498;3.710;2022-12-18T17:02:15;8.60;79.70
77104;DHT22;66052;43.498;3.710;2022-12-18T17:04:42;8.60;79.80
77104;DHT22;66052;43.498;3.710;2022-12-18T17:07:09;8.60;80.10
77104;DHT22;66052;43.498;3.710;2022-12-18T17:09:35;8.70;80.30
77104;DHT22;66052;43.498;3.710;2022-12-18T17:12:00;8.70;80.60
77104;DHT22;66052;43.498;3.710;2022-12-18T17:14:26;8.70;80.30
77104;DHT22;66052;43.498;3.710;2022-12-18T17:16:53;8.80;80.30
77104;DHT22;66052;43.498;3.710;2022-12-18T17:19:19;8.80;80.70
77104;DHT22;66052;43.498;3.710;2022-12-18T17:21:48;8.80;80.60
77104;DHT22;66052;43.498;3.710;2022-12-18T17:24:14;9.10;81.70
77104;DHT22;66052;43.498;3.710;2022-12-18T17:26:40;9.20;81.20
77104;DHT22;66052;43.498;3.710;2022-12-18T17:29:06;9.50;81.70
77104;DHT22;66052;43.498;3.710;2022-12-18T17:31:33;9.90;81.70
77104;DHT22;66052;43.498;3.710;2022-12-18T17:34:02;10.20;81.10
77104;DHT22;66052;43.498;3.710;2022-12-18T17:36:28;10.30;80.50
77104;DHT22;66052;43.498;3.710;2022-12-18T17:39:00;10.30;80.90
77104;DHT22;66052;43.498;3.710;2022-12-18T17:41:27;10.40;80.70
77104;DHT22;66052;43.498;3.710;2022-12-18T17:43:55;10.40;80.80
77104;DHT22;66052;43.498;3.710;2022-12-18T17:46:21;10.40;81.00
77104;DHT22;66052;43.498;3.710;2022-12-18T17:48:47;10.50;80.70
77104;DHT22;66052;43.498;3.710;2022-12-18T17:51:13;10.60;80.50
77104;DHT22;66052;43.498;3.710;2022-12-18T17:53:39;10.70;80.60
77104;DHT22;66052;43.498;3.710;2022-12-18T17:56:06;10.60;80.70
77104;DHT22;66052;43.498;3.710;2022-12-18T17:58:35;10.50;81.00
77104;DHT22;66052;43.498;3.710;2022-12-18T18:01:01;10.60;80.70
77104;DHT22;66052;43.498;3.710;2022-12-18T18:03:27;10.80;79.90
77104;DHT22;66052;43.498;3.710;2022-12-18T18:05:57;10.90;79.80
77104;DHT22;66052;43.498;3.710;2022-12-18T18:08:24;11.00;79.40
77104;DHT22;66052;43.498;3.710;2022-12-18T18:10:50;11.10;79.10
77104;DHT22;66052;43.498;3.710;2022-12-18T18:13:21;11.00;78.90
77104;DHT22;66052;43.498;3.710;2022-12-18T18:16:07;11.00;79.00